KLFI

Langley Air Force Base

Airport
ICAO code
KLFI
IATA Code
LFI
Summary
ICAO Region
NAM
ICAO Territory
Location

Hampton, Virginia

Serving
Hampton
Elevation
8 ft
Coordinates
37° 5' 1" N , 76° 21' 33" W
KCC
Metar
KLFI 251055Z AUTO 05003KT 4SM BR OVC011 22/21 A2985 RMK AO2 VIS 2 1/2 RWY26 CIG 010 RWY26 SLP114 T02190207 $

Langley Air Force Base, also known as Langley Field, is a United States military facility located adjacent to Hampton and Newport News, Virginia. On 1 October 2010, Langley AFB was joined with Fort Eustis to become Joint Base Langley–Eustis.

Runways

Designator Length Width Surface Rops
8/26 3048 46 CON Yes/Yes

Airport map

Aerial View

SKYbrary Partners:

Safety knowledge contributed by: